sensor_id;sensor_type;location;lat;lon;timestamp;temperature;humidity
15413;DHT22;7805;49.554;7.632;2023-10-31T00:01:20;12.80;99.90
15413;DHT22;7805;49.554;7.632;2023-10-31T00:03:46;12.80;99.90
15413;DHT22;7805;49.554;7.632;2023-10-31T00:06:12;13.10;99.90
15413;DHT22;7805;49.554;7.632;2023-10-31T00:08:37;12.90;99.90
15413;DHT22;7805;49.554;7.632;2023-10-31T00:11:03;12.80;99.90
15413;DHT22;7805;49.554;7.632;2023-10-31T00:13:28;12.80;99.90
15413;DHT22;7805;49.554;7.632;2023-10-31T00:15:54;12.80;99.90
15413;DHT22;7805;49.554;7.632;2023-10-31T00:18:20;12.80;99.90
15413;DHT22;7805;49.554;7.632;2023-10-31T00:20:46;12.80;99.90
15413;DHT22;7805;49.554;7.632;2023-10-31T00:23:12;12.80;99.90
15413;DHT22;7805;49.554;7.632;2023-10-31T00:25:37;12.80;99.90
15413;DHT22;7805;49.554;7.632;2023-10-31T00:28:03;12.60;99.90
15413;DHT22;7805;49.554;7.632;2023-10-31T00:30:29;12.60;99.90
15413;DHT22;7805;49.554;7.632;2023-10-31T00:32:55;12.60;99.90
15413;DHT22;7805;49.554;7.632;2023-10-31T00:35:20;12.60;99.90
15413;DHT22;7805;49.554;7.632;2023-10-31T00:37:46;12.60;99.90
15413;DHT22;7805;49.554;7.632;2023-10-31T00:40:12;12.50;99.90
15413;DHT22;7805;49.554;7.632;2023-10-31T00:42:38;12.70;99.90
15413;DHT22;7805;49.554;7.632;2023-10-31T00:45:06;13.20;99.90
15413;DHT22;7805;49.554;7.632;2023-10-31T00:47:32;12.60;99.90
15413;DHT22;7805;49.554;7.632;2023-10-31T00:49:58;12.60;99.90
15413;DHT22;7805;49.554;7.632;2023-10-31T00:52:24;12.60;99.90
15413;DHT22;7805;49.554;7.632;2023-10-31T00:54:49;12.60;99.90
15413;DHT22;7805;49.554;7.632;2023-10-31T00:57:15;12.70;99.90
15413;DHT22;7805;49.554;7.632;2023-10-31T00:59:40;13.00;99.90
15413;DHT22;7805;49.554;7.632;2023-10-31T01:02:06;12.70;99.90
15413;DHT22;7805;49.554;7.632;2023-10-31T01:04:32;12.70;99.90
15413;DHT22;7805;49.554;7.632;2023-10-31T01:06:57;12.70;99.90
15413;DHT22;7805;49.554;7.632;2023-10-31T01:09:23;12.70;99.90
15413;DHT22;7805;49.554;7.632;2023-10-31T01:11:48;12.80;99.90
15413;DHT22;7805;49.554;7.632;2023-10-31T01:14:14;12.70;99.90
15413;DHT22;7805;49.554;7.632;2023-10-31T01:16:40;12.80;99.90
15413;DHT22;7805;49.554;7.632;2023-10-31T01:19:06;12.80;99.90
15413;DHT22;7805;49.554;7.632;2023-10-31T01:21:32;12.80;99.90
15413;DHT22;7805;49.554;7.632;2023-10-31T01:24:01;12.70;99.90
15413;DHT22;7805;49.554;7.632;2023-10-31T01:26:26;12.70;99.90
15413;DHT22;7805;49.554;7.632;2023-10-31T01:28:52;12.60;99.90
15413;DHT22;7805;49.554;7.632;2023-10-31T01:31:18;12.60;99.90
15413;DHT22;7805;49.554;7.632;2023-10-31T01:33:43;12.60;99.90
15413;DHT22;7805;49.554;7.632;2023-10-31T01:36:09;12.60;99.90
15413;DHT22;7805;49.554;7.632;2023-10-31T01:38:38;12.60;99.90
15413;DHT22;7805;49.554;7.632;2023-10-31T01:41:04;12.50;99.90
15413;DHT22;7805;49.554;7.632;2023-10-31T01:43:34;12.60;99.90
15413;DHT22;7805;49.554;7.632;2023-10-31T01:46:00;12.60;99.90
15413;DHT22;7805;49.554;7.632;2023-10-31T01:48:27;12.60;99.90
15413;DHT22;7805;49.554;7.632;2023-10-31T01:50:55;12.70;99.90
15413;DHT22;7805;49.554;7.632;2023-10-31T01:53:22;12.60;99.90
15413;DHT22;7805;49.554;7.632;2023-10-31T01:55:48;12.60;99.90
15413;DHT22;7805;49.554;7.632;2023-10-31T01:58:14;12.90;99.90
15413;DHT22;7805;49.554;7.632;2023-10-31T02:00:40;12.50;99.90
15413;DHT22;7805;49.554;7.632;2023-10-31T02:03:09;12.50;99.90
15413;DHT22;7805;49.554;7.632;2023-10-31T02:05:35;12.40;99.90
15413;DHT22;7805;49.554;7.632;2023-10-31T02:08:05;12.40;99.90
15413;DHT22;7805;49.554;7.632;2023-10-31T02:10:33;12.40;99.90
15413;DHT22;7805;49.554;7.632;2023-10-31T02:13:10;12.40;99.90
15413;DHT22;7805;49.554;7.632;2023-10-31T02:15:36;12.40;99.90
15413;DHT22;7805;49.554;7.632;2023-10-31T02:18:01;12.50;99.90
15413;DHT22;7805;49.554;7.632;2023-10-31T02:20:27;12.50;99.90
15413;DHT22;7805;49.554;7.632;2023-10-31T02:22:52;12.40;99.90
15413;DHT22;7805;49.554;7.632;2023-10-31T02:25:18;12.30;99.90
15413;DHT22;7805;49.554;7.632;2023-10-31T02:27:44;12.40;99.90
15413;DHT22;7805;49.554;7.632;2023-10-31T02:30:10;12.40;99.90
15413;DHT22;7805;49.554;7.632;2023-10-31T02:32:35;12.40;99.90
15413;DHT22;7805;49.554;7.632;2023-10-31T02:35:01;12.40;99.90
15413;DHT22;7805;49.554;7.632;2023-10-31T02:37:27;12.40;99.90
15413;DHT22;7805;49.554;7.632;2023-10-31T02:39:52;12.30;99.90
15413;DHT22;7805;49.554;7.632;2023-10-31T02:42:18;12.40;99.90
15413;DHT22;7805;49.554;7.632;2023-10-31T02:44:43;12.30;99.90
15413;DHT22;7805;49.554;7.632;2023-10-31T02:47:09;12.40;99.90
15413;DHT22;7805;49.554;7.632;2023-10-31T02:49:35;12.50;99.90
15413;DHT22;7805;49.554;7.632;2023-10-31T02:52:03;12.40;99.90
15413;DHT22;7805;49.554;7.632;2023-10-31T02:54:29;12.40;99.90
15413;DHT22;7805;49.554;7.632;2023-10-31T02:56:54;12.40;99.90
15413;DHT22;7805;49.554;7.632;2023-10-31T02:59:20;12.20;99.90
15413;DHT22;7805;49.554;7.632;2023-10-31T03:01:45;12.20;99.90
15413;DHT22;7805;49.554;7.632;2023-10-31T03:04:11;12.30;99.90
15413;DHT22;7805;49.554;7.632;2023-10-31T03:06:37;12.30;99.90
15413;DHT22;7805;49.554;7.632;2023-10-31T03:09:03;12.30;99.90
15413;DHT22;7805;49.554;7.632;2023-10-31T03:11:28;12.30;99.90
15413;DHT22;7805;49.554;7.632;2023-10-31T03:13:54;12.30;99.90
15413;DHT22;7805;49.554;7.632;2023-10-31T03:16:21;12.40;99.90
15413;DHT22;7805;49.554;7.632;2023-10-31T03:18:47;12.30;99.90
15413;DHT22;7805;49.554;7.632;2023-10-31T03:21:12;12.30;99.90
15413;DHT22;7805;49.554;7.632;2023-10-31T03:23:38;12.40;99.90
15413;DHT22;7805;49.554;7.632;2023-10-31T03:26:04;12.30;99.90
15413;DHT22;7805;49.554;7.632;2023-10-31T03:28:30;12.30;99.90
15413;DHT22;7805;49.554;7.632;2023-10-31T03:30:55;12.30;99.90
15413;DHT22;7805;49.554;7.632;2023-10-31T03:33:22;12.30;99.90
15413;DHT22;7805;49.554;7.632;2023-10-31T03:35:48;12.20;99.90
15413;DHT22;7805;49.554;7.632;2023-10-31T03:38:13;12.20;99.90
15413;DHT22;7805;49.554;7.632;2023-10-31T03:40:39;12.20;99.90
15413;DHT22;7805;49.554;7.632;2023-10-31T03:43:04;12.20;99.90
15413;DHT22;7805;49.554;7.632;2023-10-31T03:45:30;11.90;99.90
15413;DHT22;7805;49.554;7.632;2023-10-31T03:47:56;12.20;99.90
15413;DHT22;7805;49.554;7.632;2023-10-31T03:50:22;12.10;99.90
15413;DHT22;7805;49.554;7.632;2023-10-31T03:52:47;12.20;99.90
15413;DHT22;7805;49.554;7.632;2023-10-31T03:55:13;12.30;99.90
15413;DHT22;7805;49.554;7.632;2023-10-31T03:57:39;12.30;99.90
15413;DHT22;7805;49.554;7.632;2023-10-31T04:00:05;12.40;99.90
15413;DHT22;7805;49.554;7.632;2023-10-31T04:02:32;12.30;99.90
15413;DHT22;7805;49.554;7.632;2023-10-31T04:04:58;12.30;99.90
15413;DHT22;7805;49.554;7.632;2023-10-31T04:07:24;12.30;99.90
15413;DHT22;7805;49.554;7.632;2023-10-31T04:09:49;12.20;99.90
15413;DHT22;7805;49.554;7.632;2023-10-31T04:12:16;12.20;99.90
15413;DHT22;7805;49.554;7.632;2023-10-31T04:14:42;12.20;99.90
15413;DHT22;7805;49.554;7.632;2023-10-31T04:17:07;12.30;99.90
15413;DHT22;7805;49.554;7.632;2023-10-31T04:19:33;12.20;99.90
15413;DHT22;7805;49.554;7.632;2023-10-31T04:21:58;12.20;99.90
15413;DHT22;7805;49.554;7.632;2023-10-31T04:24:24;12.20;99.90
15413;DHT22;7805;49.554;7.632;2023-10-31T04:26:49;12.20;99.90
15413;DHT22;7805;49.554;7.632;2023-10-31T04:29:15;12.10;99.90
15413;DHT22;7805;49.554;7.632;2023-10-31T04:31:41;12.00;99.90
15413;DHT22;7805;49.554;7.632;2023-10-31T04:34:06;12.00;99.90
15413;DHT22;7805;49.554;7.632;2023-10-31T04:36:32;12.00;99.90
15413;DHT22;7805;49.554;7.632;2023-10-31T04:38:58;12.00;99.90
15413;DHT22;7805;49.554;7.632;2023-10-31T04:41:23;12.00;99.90
15413;DHT22;7805;49.554;7.632;2023-10-31T04:43:49;12.00;99.90
15413;DHT22;7805;49.554;7.632;2023-10-31T04:46:14;12.00;99.90
15413;DHT22;7805;49.554;7.632;2023-10-31T04:48:40;12.00;99.90
15413;DHT22;7805;49.554;7.632;2023-10-31T04:51:05;12.10;99.90
15413;DHT22;7805;49.554;7.632;2023-10-31T04:53:31;12.00;99.90
15413;DHT22;7805;49.554;7.632;2023-10-31T04:55:58;12.10;99.90
15413;DHT22;7805;49.554;7.632;2023-10-31T04:58:24;12.70;99.90
15413;DHT22;7805;49.554;7.632;2023-10-31T05:00:50;12.10;99.90
15413;DHT22;7805;49.554;7.632;2023-10-31T05:03:16;12.10;99.90
15413;DHT22;7805;49.554;7.632;2023-10-31T05:05:41;12.00;99.90
15413;DHT22;7805;49.554;7.632;2023-10-31T05:08:07;12.00;99.90
15413;DHT22;7805;49.554;7.632;2023-10-31T05:10:33;12.00;99.90
15413;DHT22;7805;49.554;7.632;2023-10-31T05:13:00;12.10;99.90
15413;DHT22;7805;49.554;7.632;2023-10-31T05:15:26;12.10;99.90
15413;DHT22;7805;49.554;7.632;2023-10-31T05:17:52;12.00;99.90
15413;DHT22;7805;49.554;7.632;2023-10-31T05:20:17;11.90;99.90
15413;DHT22;7805;49.554;7.632;2023-10-31T05:22:43;11.90;99.90
15413;DHT22;7805;49.554;7.632;2023-10-31T05:25:08;12.00;99.90
15413;DHT22;7805;49.554;7.632;2023-10-31T05:27:34;12.00;99.90
15413;DHT22;7805;49.554;7.632;2023-10-31T05:30:00;12.00;99.90
15413;DHT22;7805;49.554;7.632;2023-10-31T05:32:28;12.00;99.90
15413;DHT22;7805;49.554;7.632;2023-10-31T05:34:54;12.00;99.90
15413;DHT22;7805;49.554;7.632;2023-10-31T05:37:19;12.30;99.90
15413;DHT22;7805;49.554;7.632;2023-10-31T05:39:45;11.90;99.90
15413;DHT22;7805;49.554;7.632;2023-10-31T05:42:10;11.80;99.90
15413;DHT22;7805;49.554;7.632;2023-10-31T05:44:36;11.80;99.90
15413;DHT22;7805;49.554;7.632;2023-10-31T05:47:02;11.90;99.90
15413;DHT22;7805;49.554;7.632;2023-10-31T05:49:27;11.80;99.90
15413;DHT22;7805;49.554;7.632;2023-10-31T05:51:53;11.80;99.90
15413;DHT22;7805;49.554;7.632;2023-10-31T05:54:19;11.80;99.90
15413;DHT22;7805;49.554;7.632;2023-10-31T05:56:44;11.80;99.90
15413;DHT22;7805;49.554;7.632;2023-10-31T05:59:13;11.90;99.90
15413;DHT22;7805;49.554;7.632;2023-10-31T06:01:38;11.90;99.90
15413;DHT22;7805;49.554;7.632;2023-10-31T06:04:04;11.90;99.90
15413;DHT22;7805;49.554;7.632;2023-10-31T06:06:32;11.90;99.90
15413;DHT22;7805;49.554;7.632;2023-10-31T06:08:58;11.90;99.90
15413;DHT22;7805;49.554;7.632;2023-10-31T06:11:23;12.00;99.90
15413;DHT22;7805;49.554;7.632;2023-10-31T06:13:49;12.00;99.90
15413;DHT22;7805;49.554;7.632;2023-10-31T06:16:14;12.00;99.90
15413;DHT22;7805;49.554;7.632;2023-10-31T06:18:40;12.00;99.90
15413;DHT22;7805;49.554;7.632;2023-10-31T06:21:06;12.00;99.90
15413;DHT22;7805;49.554;7.632;2023-10-31T06:23:35;12.90;99.90
15413;DHT22;7805;49.554;7.632;2023-10-31T06:26:00;12.00;99.90
15413;DHT22;7805;49.554;7.632;2023-10-31T06:28:26;12.40;99.90
15413;DHT22;7805;49.554;7.632;2023-10-31T06:30:52;11.90;99.90
15413;DHT22;7805;49.554;7.632;2023-10-31T06:33:17;12.00;99.90
15413;DHT22;7805;49.554;7.632;2023-10-31T06:35:43;12.00;99.90
15413;DHT22;7805;49.554;7.632;2023-10-31T06:38:08;12.00;99.90
15413;DHT22;7805;49.554;7.632;2023-10-31T06:40:34;12.00;99.90
15413;DHT22;7805;49.554;7.632;2023-10-31T06:43:00;12.00;99.90
15413;DHT22;7805;49.554;7.632;2023-10-31T06:45:26;12.00;99.90
15413;DHT22;7805;49.554;7.632;2023-10-31T06:47:51;12.10;99.90
15413;DHT22;7805;49.554;7.632;2023-10-31T06:50:17;12.10;99.90
15413;DHT22;7805;49.554;7.632;2023-10-31T06:52:42;12.10;99.90
15413;DHT22;7805;49.554;7.632;2023-10-31T06:55:08;12.00;99.90
15413;DHT22;7805;49.554;7.632;2023-10-31T06:57:34;12.10;99.90
15413;DHT22;7805;49.554;7.632;2023-10-31T06:59:59;12.10;99.90
15413;DHT22;7805;49.554;7.632;2023-10-31T07:02:25;12.20;99.90
15413;DHT22;7805;49.554;7.632;2023-10-31T07:04:51;12.10;99.90
15413;DHT22;7805;49.554;7.632;2023-10-31T07:07:16;12.20;99.90
15413;DHT22;7805;49.554;7.632;2023-10-31T07:09:42;12.10;99.90
15413;DHT22;7805;49.554;7.632;2023-10-31T07:12:08;12.00;99.90
15413;DHT22;7805;49.554;7.632;2023-10-31T07:14:33;12.00;99.90
15413;DHT22;7805;49.554;7.632;2023-10-31T07:16:59;12.00;99.90
15413;DHT22;7805;49.554;7.632;2023-10-31T07:19:24;12.00;99.90
15413;DHT22;7805;49.554;7.632;2023-10-31T07:21:50;12.10;99.90
15413;DHT22;7805;49.554;7.632;2023-10-31T07:24:15;12.00;99.90
15413;DHT22;7805;49.554;7.632;2023-10-31T07:26:41;12.10;99.90
15413;DHT22;7805;49.554;7.632;2023-10-31T07:29:06;12.10;99.90
15413;DHT22;7805;49.554;7.632;2023-10-31T07:31:32;12.10;99.90
15413;DHT22;7805;49.554;7.632;2023-10-31T07:33:58;12.10;99.90
15413;DHT22;7805;49.554;7.632;2023-10-31T07:36:23;12.40;99.90
15413;DHT22;7805;49.554;7.632;2023-10-31T07:38:50;12.20;99.90
15413;DHT22;7805;49.554;7.632;2023-10-31T07:41:16;12.20;99.90
15413;DHT22;7805;49.554;7.632;2023-10-31T07:43:41;12.20;99.90
15413;DHT22;7805;49.554;7.632;2023-10-31T07:46:07;12.30;99.90
15413;DHT22;7805;49.554;7.632;2023-10-31T07:48:32;12.30;99.90
15413;DHT22;7805;49.554;7.632;2023-10-31T07:50:58;12.30;99.90
15413;DHT22;7805;49.554;7.632;2023-10-31T07:53:23;12.30;99.90
15413;DHT22;7805;49.554;7.632;2023-10-31T07:55:49;12.30;99.90
15413;DHT22;7805;49.554;7.632;2023-10-31T07:58:14;12.20;99.90
15413;DHT22;7805;49.554;7.632;2023-10-31T08:00:40;12.20;99.90
15413;DHT22;7805;49.554;7.632;2023-10-31T08:03:06;12.30;99.90
15413;DHT22;7805;49.554;7.632;2023-10-31T08:05:32;12.30;99.90
15413;DHT22;7805;49.554;7.632;2023-10-31T08:07:57;12.90;99.90
15413;DHT22;7805;49.554;7.632;2023-10-31T08:10:23;12.60;99.90
15413;DHT22;7805;49.554;7.632;2023-10-31T08:12:49;12.70;99.90
15413;DHT22;7805;49.554;7.632;2023-10-31T08:15:15;13.00;99.90
15413;DHT22;7805;49.554;7.632;2023-10-31T08:17:41;13.20;99.90
15413;DHT22;7805;49.554;7.632;2023-10-31T08:20:08;13.50;99.90
15413;DHT22;7805;49.554;7.632;2023-10-31T08:22:36;13.80;99.90
15413;DHT22;7805;49.554;7.632;2023-10-31T08:25:02;14.10;99.90
15413;DHT22;7805;49.554;7.632;2023-10-31T08:27:28;14.30;99.90
15413;DHT22;7805;49.554;7.632;2023-10-31T08:29:53;14.40;99.90
15413;DHT22;7805;49.554;7.632;2023-10-31T08:32:19;14.50;99.90
15413;DHT22;7805;49.554;7.632;2023-10-31T08:34:44;14.50;99.90
15413;DHT22;7805;49.554;7.632;2023-10-31T08:37:10;14.40;99.90
15413;DHT22;7805;49.554;7.632;2023-10-31T08:39:35;14.40;99.90
15413;DHT22;7805;49.554;7.632;2023-10-31T08:42:01;14.30;99.90
15413;DHT22;7805;49.554;7.632;2023-10-31T08:44:27;14.20;99.90
15413;DHT22;7805;49.554;7.632;2023-10-31T08:46:52;14.20;99.90
15413;DHT22;7805;49.554;7.632;2023-10-31T08:49:18;14.30;99.90
15413;DHT22;7805;49.554;7.632;2023-10-31T08:51:44;14.30;99.90
15413;DHT22;7805;49.554;7.632;2023-10-31T08:54:10;14.40;99.90
15413;DHT22;7805;49.554;7.632;2023-10-31T08:56:36;14.70;99.90
15413;DHT22;7805;49.554;7.632;2023-10-31T08:59:02;14.90;99.90
15413;DHT22;7805;49.554;7.632;2023-10-31T09:01:28;15.00;99.90
15413;DHT22;7805;49.554;7.632;2023-10-31T09:03:56;15.20;99.90
15413;DHT22;7805;49.554;7.632;2023-10-31T09:06:24;15.40;99.90
15413;DHT22;7805;49.554;7.632;2023-10-31T09:08:49;15.20;99.90
15413;DHT22;7805;49.554;7.632;2023-10-31T09:11:15;15.30;99.90
15413;DHT22;7805;49.554;7.632;2023-10-31T09:13:41;15.40;99.90
15413;DHT22;7805;49.554;7.632;2023-10-31T09:16:06;15.40;99.90
15413;DHT22;7805;49.554;7.632;2023-10-31T09:18:32;15.20;99.90
15413;DHT22;7805;49.554;7.632;2023-10-31T09:20:57;15.20;99.90
15413;DHT22;7805;49.554;7.632;2023-10-31T09:23:23;15.30;99.90
15413;DHT22;7805;49.554;7.632;2023-10-31T09:25:49;15.20;99.90
15413;DHT22;7805;49.554;7.632;2023-10-31T09:28:15;15.20;99.90
15413;DHT22;7805;49.554;7.632;2023-10-31T09:30:40;15.10;99.90
15413;DHT22;7805;49.554;7.632;2023-10-31T09:33:06;15.20;99.90
15413;DHT22;7805;49.554;7.632;2023-10-31T09:35:31;15.00;99.90
15413;DHT22;7805;49.554;7.632;2023-10-31T09:37:57;14.70;99.90
15413;DHT22;7805;49.554;7.632;2023-10-31T09:40:23;14.70;99.90
15413;DHT22;7805;49.554;7.632;2023-10-31T09:42:48;14.70;99.90
15413;DHT22;7805;49.554;7.632;2023-10-31T09:45:15;14.70;99.90
15413;DHT22;7805;49.554;7.632;2023-10-31T09:47:40;14.80;99.90
15413;DHT22;7805;49.554;7.632;2023-10-31T09:50:08;15.10;99.90
15413;DHT22;7805;49.554;7.632;2023-10-31T09:52:35;15.30;99.90
15413;DHT22;7805;49.554;7.632;2023-10-31T09:55:02;15.40;99.90
15413;DHT22;7805;49.554;7.632;2023-10-31T09:57:28;15.70;99.90
15413;DHT22;7805;49.554;7.632;2023-10-31T09:59:54;15.90;99.90
15413;DHT22;7805;49.554;7.632;2023-10-31T10:02:20;15.90;99.90
15413;DHT22;7805;49.554;7.632;2023-10-31T10:04:47;16.10;99.90
15413;DHT22;7805;49.554;7.632;2023-10-31T10:07:16;16.50;99.90
15413;DHT22;7805;49.554;7.632;2023-10-31T10:09:43;16.40;99.90
15413;DHT22;7805;49.554;7.632;2023-10-31T10:12:12;16.50;99.90
15413;DHT22;7805;49.554;7.632;2023-10-31T10:14:39;16.10;99.90
15413;DHT22;7805;49.554;7.632;2023-10-31T10:17:16;16.10;99.90
15413;DHT22;7805;49.554;7.632;2023-10-31T10:19:41;16.30;99.90
15413;DHT22;7805;49.554;7.632;2023-10-31T10:22:07;16.50;99.90
15413;DHT22;7805;49.554;7.632;2023-10-31T10:24:33;16.50;99.90
15413;DHT22;7805;49.554;7.632;2023-10-31T10:26:58;16.60;99.90
15413;DHT22;7805;49.554;7.632;2023-10-31T10:29:24;16.50;99.90
15413;DHT22;7805;49.554;7.632;2023-10-31T10:31:51;16.10;99.90
15413;DHT22;7805;49.554;7.632;2023-10-31T10:34:18;16.00;99.90
15413;DHT22;7805;49.554;7.632;2023-10-31T10:36:48;15.90;99.90
15413;DHT22;7805;49.554;7.632;2023-10-31T10:39:21;16.00;99.90
15413;DHT22;7805;49.554;7.632;2023-10-31T10:41:55;15.80;99.90
15413;DHT22;7805;49.554;7.632;2023-10-31T10:44:34;15.80;99.90
15413;DHT22;7805;49.554;7.632;2023-10-31T10:47:07;16.10;99.90
15413;DHT22;7805;49.554;7.632;2023-10-31T10:49:34;16.10;99.90
15413;DHT22;7805;49.554;7.632;2023-10-31T10:59:52;16.20;99.90
15413;DHT22;7805;49.554;7.632;2023-10-31T11:02:22;16.30;99.90
15413;DHT22;7805;49.554;7.632;2023-10-31T11:04:48;16.30;99.90
15413;DHT22;7805;49.554;7.632;2023-10-31T11:07:14;16.60;99.90
15413;DHT22;7805;49.554;7.632;2023-10-31T11:09:40;16.90;99.90
15413;DHT22;7805;49.554;7.632;2023-10-31T11:12:10;17.00;99.90
15413;DHT22;7805;49.554;7.632;2023-10-31T11:14:36;17.90;99.90
15413;DHT22;7805;49.554;7.632;2023-10-31T11:17:26;17.10;99.90
15413;DHT22;7805;49.554;7.632;2023-10-31T11:19:53;16.80;99.90
15413;DHT22;7805;49.554;7.632;2023-10-31T11:22:19;17.70;99.90
15413;DHT22;7805;49.554;7.632;2023-10-31T11:24:45;17.90;99.90
15413;DHT22;7805;49.554;7.632;2023-10-31T11:27:11;17.90;99.90
15413;DHT22;7805;49.554;7.632;2023-10-31T11:29:37;18.30;99.90
15413;DHT22;7805;49.554;7.632;2023-10-31T11:32:03;18.30;99.90
15413;DHT22;7805;49.554;7.632;2023-10-31T11:34:30;18.40;99.90
15413;DHT22;7805;49.554;7.632;2023-10-31T11:37:18;18.20;99.90
15413;DHT22;7805;49.554;7.632;2023-10-31T11:42:38;18.20;99.90
15413;DHT22;7805;49.554;7.632;2023-10-31T11:45:08;18.30;99.90
15413;DHT22;7805;49.554;7.632;2023-10-31T11:47:49;18.60;99.90
15413;DHT22;7805;49.554;7.632;2023-10-31T11:50:16;19.10;99.90
15413;DHT22;7805;49.554;7.632;2023-10-31T11:52:41;19.60;99.20
15413;DHT22;7805;49.554;7.632;2023-10-31T11:55:11;19.50;98.80
15413;DHT22;7805;49.554;7.632;2023-10-31T11:57:38;19.70;98.70
15413;DHT22;7805;49.554;7.632;2023-10-31T12:00:04;19.80;97.90
15413;DHT22;7805;49.554;7.632;2023-10-31T12:02:30;19.80;97.90
15413;DHT22;7805;49.554;7.632;2023-10-31T12:05:12;19.70;97.20
15413;DHT22;7805;49.554;7.632;2023-10-31T12:07:45;19.80;96.70
15413;DHT22;7805;49.554;7.632;2023-10-31T12:10:11;19.80;97.70
15413;DHT22;7805;49.554;7.632;2023-10-31T12:12:37;20.20;97.50
15413;DHT22;7805;49.554;7.632;2023-10-31T12:17:32;19.90;96.50
15413;DHT22;7805;49.554;7.632;2023-10-31T12:20:02;19.60;96.70
15413;DHT22;7805;49.554;7.632;2023-10-31T12:22:28;19.20;96.80
15413;DHT22;7805;49.554;7.632;2023-10-31T12:25:00;19.20;97.90
15413;DHT22;7805;49.554;7.632;2023-10-31T12:27:41;19.60;98.00
15413;DHT22;7805;49.554;7.632;2023-10-31T12:30:07;19.80;97.50
15413;DHT22;7805;49.554;7.632;2023-10-31T12:32:33;19.60;97.10
15413;DHT22;7805;49.554;7.632;2023-10-31T12:34:58;20.00;97.20
15413;DHT22;7805;49.554;7.632;2023-10-31T12:37:24;19.80;96.60
15413;DHT22;7805;49.554;7.632;2023-10-31T12:39:50;19.40;96.50
15413;DHT22;7805;49.554;7.632;2023-10-31T12:42:17;19.20;97.30
15413;DHT22;7805;49.554;7.632;2023-10-31T12:44:43;19.10;97.80
15413;DHT22;7805;49.554;7.632;2023-10-31T12:47:08;19.20;97.70
15413;DHT22;7805;49.554;7.632;2023-10-31T12:49:34;19.60;97.40
15413;DHT22;7805;49.554;7.632;2023-10-31T12:52:03;19.00;96.80
15413;DHT22;7805;49.554;7.632;2023-10-31T12:54:30;19.50;97.80
15413;DHT22;7805;49.554;7.632;2023-10-31T12:57:00;19.70;97.00
15413;DHT22;7805;49.554;7.632;2023-10-31T12:59:26;20.10;96.00
15413;DHT22;7805;49.554;7.632;2023-10-31T13:01:52;21.00;95.30
15413;DHT22;7805;49.554;7.632;2023-10-31T13:04:27;21.80;93.60
15413;DHT22;7805;49.554;7.632;2023-10-31T13:06:59;22.80;90.80
15413;DHT22;7805;49.554;7.632;2023-10-31T13:09:33;23.80;87.70
15413;DHT22;7805;49.554;7.632;2023-10-31T13:12:01;25.40;82.60
15413;DHT22;7805;49.554;7.632;2023-10-31T13:14:27;25.00;76.10
15413;DHT22;7805;49.554;7.632;2023-10-31T13:16:53;22.80;77.00
15413;DHT22;7805;49.554;7.632;2023-10-31T13:19:18;22.10;77.90
15413;DHT22;7805;49.554;7.632;2023-10-31T13:21:44;22.80;80.00
15413;DHT22;7805;49.554;7.632;2023-10-31T13:24:10;21.70;83.30
15413;DHT22;7805;49.554;7.632;2023-10-31T13:26:35;20.90;88.70
15413;DHT22;7805;49.554;7.632;2023-10-31T13:29:01;21.40;90.40
15413;DHT22;7805;49.554;7.632;2023-10-31T13:31:27;21.30;90.10
15413;DHT22;7805;49.554;7.632;2023-10-31T13:33:52;21.30;90.80
15413;DHT22;7805;49.554;7.632;2023-10-31T13:36:18;21.20;88.80
15413;DHT22;7805;49.554;7.632;2023-10-31T13:38:44;20.60;88.60
15413;DHT22;7805;49.554;7.632;2023-10-31T13:41:09;20.70;90.90
15413;DHT22;7805;49.554;7.632;2023-10-31T13:43:35;20.60;88.10
15413;DHT22;7805;49.554;7.632;2023-10-31T13:46:03;20.30;89.20
15413;DHT22;7805;49.554;7.632;2023-10-31T13:48:28;20.10;90.90
15413;DHT22;7805;49.554;7.632;2023-10-31T13:50:54;20.30;91.70
15413;DHT22;7805;49.554;7.632;2023-10-31T13:53:19;20.40;91.00
15413;DHT22;7805;49.554;7.632;2023-10-31T13:55:45;21.20;91.40
15413;DHT22;7805;49.554;7.632;2023-10-31T13:58:11;22.10;89.70
15413;DHT22;7805;49.554;7.632;2023-10-31T14:00:37;22.40;86.30
15413;DHT22;7805;49.554;7.632;2023-10-31T14:03:02;21.80;84.10
15413;DHT22;7805;49.554;7.632;2023-10-31T14:05:28;21.20;85.40
15413;DHT22;7805;49.554;7.632;2023-10-31T14:07:53;20.50;87.20
15413;DHT22;7805;49.554;7.632;2023-10-31T14:10:19;19.60;89.20
15413;DHT22;7805;49.554;7.632;2023-10-31T14:12:46;18.80;91.10
15413;DHT22;7805;49.554;7.632;2023-10-31T14:15:12;18.30;92.90
15413;DHT22;7805;49.554;7.632;2023-10-31T14:17:38;17.90;94.50
15413;DHT22;7805;49.554;7.632;2023-10-31T14:20:03;17.70;95.40
15413;DHT22;7805;49.554;7.632;2023-10-31T14:22:29;17.50;96.30
15413;DHT22;7805;49.554;7.632;2023-10-31T14:24:55;17.50;97.20
15413;DHT22;7805;49.554;7.632;2023-10-31T14:27:21;17.40;97.70
15413;DHT22;7805;49.554;7.632;2023-10-31T14:29:46;17.30;98.20
15413;DHT22;7805;49.554;7.632;2023-10-31T14:32:12;17.30;98.80
15413;DHT22;7805;49.554;7.632;2023-10-31T14:34:37;16.90;99.20
15413;DHT22;7805;49.554;7.632;2023-10-31T14:37:03;16.80;99.90
15413;DHT22;7805;49.554;7.632;2023-10-31T14:39:31;16.70;99.90
15413;DHT22;7805;49.554;7.632;2023-10-31T14:41:57;16.70;99.90
15413;DHT22;7805;49.554;7.632;2023-10-31T14:44:22;16.60;99.90
15413;DHT22;7805;49.554;7.632;2023-10-31T14:46:48;16.50;99.90
15413;DHT22;7805;49.554;7.632;2023-10-31T14:49:13;16.40;99.90
15413;DHT22;7805;49.554;7.632;2023-10-31T14:51:39;16.40;99.90
15413;DHT22;7805;49.554;7.632;2023-10-31T14:54:07;16.30;99.90
15413;DHT22;7805;49.554;7.632;2023-10-31T14:56:33;16.20;99.90
15413;DHT22;7805;49.554;7.632;2023-10-31T14:59:00;16.10;99.90
15413;DHT22;7805;49.554;7.632;2023-10-31T15:01:28;16.10;99.90
15413;DHT22;7805;49.554;7.632;2023-10-31T15:03:53;16.10;99.90
15413;DHT22;7805;49.554;7.632;2023-10-31T15:06:21;16.10;99.90
15413;DHT22;7805;49.554;7.632;2023-10-31T15:08:47;16.00;99.90
15413;DHT22;7805;49.554;7.632;2023-10-31T15:11:12;16.10;99.90
15413;DHT22;7805;49.554;7.632;2023-10-31T15:13:38;15.90;99.90
15413;DHT22;7805;49.554;7.632;2023-10-31T15:16:04;15.80;99.90
15413;DHT22;7805;49.554;7.632;2023-10-31T15:18:29;15.60;99.90
15413;DHT22;7805;49.554;7.632;2023-10-31T15:20:55;15.60;99.90
15413;DHT22;7805;49.554;7.632;2023-10-31T15:23:23;15.40;99.90
15413;DHT22;7805;49.554;7.632;2023-10-31T15:28:17;15.40;99.90
15413;DHT22;7805;49.554;7.632;2023-10-31T15:30:42;15.50;99.90
15413;DHT22;7805;49.554;7.632;2023-10-31T15:33:08;15.50;99.90
15413;DHT22;7805;49.554;7.632;2023-10-31T15:35:33;15.40;99.90
15413;DHT22;7805;49.554;7.632;2023-10-31T15:38:00;15.50;99.90
15413;DHT22;7805;49.554;7.632;2023-10-31T15:40:26;15.40;99.90
15413;DHT22;7805;49.554;7.632;2023-10-31T15:42:51;15.50;99.90
15413;DHT22;7805;49.554;7.632;2023-10-31T15:45:17;15.40;99.90
15413;DHT22;7805;49.554;7.632;2023-10-31T15:47:42;15.40;99.90
15413;DHT22;7805;49.554;7.632;2023-10-31T15:50:08;15.40;99.90
15413;DHT22;7805;49.554;7.632;2023-10-31T15:52:34;15.20;99.90
15413;DHT22;7805;49.554;7.632;2023-10-31T15:55:00;15.00;99.90